createdAt,value
2023-03-12T00:02:09.230Z,4.88
2023-03-12T00:04:36.390Z,4.60
2023-03-12T00:07:06.501Z,4.00
2023-03-12T00:09:38.127Z,4.25
2023-03-12T00:12:05.874Z,4.07
2023-03-12T00:14:32.780Z,4.85
2023-03-12T00:16:59.424Z,4.78
2023-03-12T00:19:26.340Z,4.55
2023-03-12T00:21:52.898Z,3.75
2023-03-12T00:24:19.616Z,3.53
2023-03-12T00:26:46.192Z,3.30
2023-03-12T00:29:12.784Z,3.72
2023-03-12T00:31:39.449Z,2.85
2023-03-12T00:34:05.980Z,3.17
2023-03-12T00:36:33.445Z,3.37
2023-03-12T00:39:01.406Z,3.10
2023-03-12T00:41:29.344Z,2.90
2023-03-12T00:43:56.116Z,3.17
2023-03-12T00:46:22.870Z,3.00
2023-03-12T00:48:49.734Z,2.77
2023-03-12T00:51:16.295Z,2.83
2023-03-12T00:53:43.158Z,3.50
2023-03-12T00:56:09.771Z,3.30
2023-03-12T00:58:36.498Z,3.50
2023-03-12T01:01:03.357Z,2.57
2023-03-12T01:03:30.052Z,3.75
2023-03-12T01:05:56.668Z,2.65
2023-03-12T01:08:24.157Z,2.25
2023-03-12T01:10:51.126Z,3.10
2023-03-12T01:13:17.672Z,3.03
2023-03-12T01:15:44.275Z,2.63
2023-03-12T01:18:11.228Z,3.03
2023-03-12T01:20:37.966Z,2.67
2023-03-12T01:23:04.520Z,2.97
2023-03-12T01:25:31.010Z,3.77
2023-03-12T01:27:57.606Z,2.85
2023-03-12T01:30:24.349Z,2.55
2023-03-12T01:32:52.304Z,2.40
2023-03-12T01:35:19.420Z,2.75
2023-03-12T01:37:46.450Z,2.53
2023-03-12T01:40:25.360Z,2.45
2023-03-12T01:42:54.665Z,2.55
2023-03-12T01:45:58.983Z,2.53
2023-03-12T01:48:30.446Z,2.80
2023-03-12T01:50:57.200Z,2.90
2023-03-12T01:53:23.814Z,2.28
2023-03-12T01:55:51.046Z,2.28
2023-03-12T01:58:17.981Z,2.38
2023-03-12T02:00:44.851Z,1.70
2023-03-12T02:03:13.790Z,2.10
2023-03-12T02:05:51.815Z,2.53
2023-03-12T02:08:18.738Z,2.30
2023-03-12T02:10:46.330Z,2.20
2023-03-12T02:13:13.271Z,2.45
2023-03-12T02:15:40.081Z,2.07
2023-03-12T02:18:09.459Z,1.95
2023-03-12T02:20:56.582Z,1.98
2023-03-12T02:23:44.267Z,1.90
2023-03-12T02:26:12.318Z,1.30
2023-03-12T02:28:44.123Z,1.87
2023-03-12T02:31:14.482Z,1.20
2023-03-12T02:33:41.632Z,1.75
2023-03-12T02:36:09.566Z,2.13
2023-03-12T02:38:43.857Z,2.00
2023-03-12T02:41:29.095Z,2.13
2023-03-12T02:44:02.136Z,1.85
2023-03-12T02:46:32.888Z,1.83
2023-03-12T02:48:59.464Z,2.33
2023-03-12T02:51:26.025Z,1.60
2023-03-12T02:53:55.034Z,1.97
2023-03-12T02:56:23.678Z,1.50
2023-03-12T02:58:50.446Z,1.60
2023-03-12T03:01:17.966Z,1.80
2023-03-12T03:03:45.376Z,1.75
2023-03-12T03:06:12.205Z,2.20
2023-03-12T03:08:38.993Z,1.38
2023-03-12T03:11:06.285Z,1.80
2023-03-12T03:13:33.710Z,1.00
2023-03-12T03:16:02.148Z,1.17
2023-03-12T03:18:30.127Z,1.50
2023-03-12T03:20:57.366Z,1.13
2023-03-12T03:23:24.409Z,1.30
2023-03-12T03:25:52.888Z,1.42
2023-03-12T03:28:20.597Z,1.33
2023-03-12T03:30:47.226Z,1.10
2023-03-12T03:33:14.519Z,1.05
2023-03-12T03:35:41.141Z,1.05
2023-03-12T03:38:08.579Z,1.10
2023-03-12T03:40:35.206Z,1.15
2023-03-12T03:43:01.771Z,1.47
2023-03-12T03:45:28.456Z,1.00
2023-03-12T03:47:55.300Z,1.40
2023-03-12T03:50:22.258Z,1.27
2023-03-12T03:52:48.799Z,1.20
2023-03-12T03:55:15.562Z,1.37
2023-03-12T03:57:42.152Z,1.63
2023-03-12T04:00:10.069Z,1.20
2023-03-12T04:02:36.558Z,1.65
2023-03-12T04:05:03.229Z,1.10
2023-03-12T04:07:29.838Z,1.30
2023-03-12T04:09:57.596Z,1.10
2023-03-12T04:12:26.089Z,0.90
2023-03-12T04:14:53.122Z,1.20
2023-03-12T04:17:19.978Z,0.95
2023-03-12T04:19:46.509Z,1.10
2023-03-12T04:22:13.272Z,1.38
2023-03-12T04:24:40.058Z,0.80
2023-03-12T04:27:06.677Z,1.13
2023-03-12T04:29:33.222Z,1.25
2023-03-12T04:31:59.754Z,1.20
2023-03-12T04:34:26.326Z,1.10
2023-03-12T04:36:52.785Z,1.00
2023-03-12T04:39:20.532Z,0.80
2023-03-12T04:41:47.541Z,1.98
2023-03-12T04:44:15.046Z,0.90
2023-03-12T04:46:42.429Z,1.80
2023-03-12T04:49:09.452Z,1.90
2023-03-12T04:51:36.046Z,1.45
2023-03-12T04:54:02.828Z,1.50
2023-03-12T04:56:29.446Z,1.33
2023-03-12T04:58:56.211Z,1.52
2023-03-12T05:01:24.471Z,1.80
2023-03-12T05:03:51.602Z,2.35
2023-03-12T05:06:18.566Z,1.27
2023-03-12T05:08:45.350Z,2.20
2023-03-12T05:11:11.952Z,1.67
2023-03-12T05:13:38.453Z,1.45
2023-03-12T05:16:05.465Z,2.50
2023-03-12T05:18:32.271Z,1.63
2023-03-12T05:21:08.057Z,1.50
2023-03-12T05:23:35.771Z,1.55
2023-03-12T05:26:02.797Z,1.67
2023-03-12T05:28:29.690Z,1.70
2023-03-12T05:30:58.232Z,1.50
2023-03-12T05:33:25.741Z,1.40
2023-03-12T05:35:52.410Z,1.55
2023-03-12T05:38:19.649Z,1.42
2023-03-12T05:40:59.464Z,1.70
2023-03-12T05:43:27.348Z,1.58
2023-03-12T05:45:54.018Z,1.50
2023-03-12T05:48:20.730Z,1.50
2023-03-12T05:50:47.281Z,1.77
2023-03-12T05:53:13.832Z,1.60
2023-03-12T05:55:40.876Z,1.33
2023-03-12T05:58:07.973Z,1.67
2023-03-12T06:00:38.009Z,1.33
2023-03-12T06:03:05.682Z,1.75
2023-03-12T06:05:34.317Z,1.55
2023-03-12T06:08:01.623Z,1.45
2023-03-12T06:10:28.647Z,1.80
2023-03-12T06:12:55.699Z,1.60
2023-03-12T06:15:22.180Z,1.52
2023-03-12T06:17:48.832Z,1.60
2023-03-12T06:20:15.753Z,1.92
2023-03-12T06:22:42.369Z,2.17
2023-03-12T06:25:09.690Z,1.80
2023-03-12T06:27:36.346Z,2.05
2023-03-12T06:30:04.901Z,1.50
2023-03-12T06:32:31.687Z,1.80
2023-03-12T06:35:00.693Z,2.00
2023-03-12T06:37:28.213Z,1.55
2023-03-12T06:39:54.840Z,1.73
2023-03-12T06:42:22.643Z,0.95
2023-03-12T06:44:50.421Z,2.50
2023-03-12T06:47:17.781Z,1.70
2023-03-12T06:49:44.561Z,1.50
2023-03-12T06:52:11.316Z,1.92
2023-03-12T06:54:38.216Z,2.60
2023-03-12T06:57:04.788Z,2.33
2023-03-12T06:59:31.304Z,1.87
2023-03-12T07:01:57.814Z,2.05
2023-03-12T07:04:24.335Z,1.65
2023-03-12T07:06:51.492Z,2.00
2023-03-12T07:09:19.396Z,2.50
2023-03-12T07:11:46.340Z,2.00
2023-03-12T07:14:12.979Z,2.42
2023-03-12T07:16:39.629Z,2.20
2023-03-12T07:19:06.363Z,1.90
2023-03-12T07:21:33.078Z,2.08
2023-03-12T07:24:00.964Z,2.07
2023-03-12T07:26:27.730Z,2.30
2023-03-12T07:28:54.433Z,2.85
2023-03-12T07:31:21.036Z,1.42
2023-03-12T07:33:47.951Z,3.33
2023-03-12T07:36:14.937Z,2.33
2023-03-12T07:38:41.646Z,2.30
2023-03-12T07:41:09.009Z,2.30
2023-03-12T07:43:35.651Z,2.20
2023-03-12T07:46:02.212Z,3.13
2023-03-12T07:48:28.945Z,2.93
2023-03-12T07:50:55.647Z,1.73
2023-03-12T07:53:22.330Z,2.88
2023-03-12T07:55:49.067Z,3.45
2023-03-12T07:58:16.939Z,2.10
2023-03-12T08:00:44.507Z,1.90
2023-03-12T08:03:11.854Z,1.85
2023-03-12T08:05:38.933Z,2.47
2023-03-12T08:08:05.793Z,1.92
2023-03-12T08:10:32.655Z,3.20
2023-03-12T08:12:59.344Z,1.60
2023-03-12T08:15:25.975Z,2.40
2023-03-12T08:17:53.885Z,2.35
2023-03-12T08:20:20.474Z,1.92
2023-03-12T08:22:47.285Z,2.17
2023-03-12T08:25:13.892Z,2.30
2023-03-12T08:27:40.407Z,2.55
2023-03-12T08:30:07.521Z,3.47
2023-03-12T08:32:34.668Z,1.38
2023-03-12T08:35:01.758Z,3.25
2023-03-12T08:37:28.560Z,2.30
2023-03-12T08:39:55.194Z,2.83
2023-03-12T08:42:21.718Z,1.90
2023-03-12T08:44:48.286Z,2.72
2023-03-12T08:47:15.042Z,2.80
2023-03-12T08:49:41.547Z,3.17
2023-03-12T08:52:08.197Z,2.13
2023-03-12T08:54:34.941Z,3.42
2023-03-12T08:57:03.087Z,1.98
2023-03-12T08:59:29.703Z,2.70
2023-03-12T09:01:56.271Z,3.30
2023-03-12T09:04:22.905Z,2.65
2023-03-12T09:06:49.740Z,3.85
2023-03-12T09:09:16.291Z,3.40
2023-03-12T09:11:42.850Z,2.78
2023-03-12T09:16:56.876Z,3.20
2023-03-12T09:19:23.799Z,3.33
2023-03-12T09:21:50.513Z,3.08
2023-03-12T09:24:17.366Z,4.95
2023-03-12T09:26:43.838Z,3.50
2023-03-12T09:29:10.654Z,4.10
2023-03-12T09:31:37.388Z,3.72
2023-03-12T09:34:05.172Z,3.85
2023-03-12T09:36:32.488Z,5.35
2023-03-12T09:38:59.355Z,5.17
2023-03-12T09:41:29.355Z,4.45
2023-03-12T09:44:05.101Z,5.93
2023-03-12T09:46:39.013Z,5.93
2023-03-12T09:49:14.190Z,5.40
2023-03-12T09:51:46.615Z,5.30
2023-03-12T09:54:25.934Z,6.20
2023-03-12T09:56:55.024Z,5.60
2023-03-12T09:59:22.418Z,6.63
2023-03-12T10:02:02.488Z,7.28
2023-03-12T10:04:59.363Z,6.87
2023-03-12T10:07:35.871Z,5.05
2023-03-12T10:10:05.340Z,6.10
2023-03-12T10:12:56.067Z,7.82
2023-03-12T10:15:35.968Z,6.20
2023-03-12T10:18:41.997Z,6.47
2023-03-12T10:21:30.273Z,7.85
2023-03-12T10:24:17.044Z,5.47
2023-03-12T10:26:49.238Z,5.97
2023-03-12T10:29:29.692Z,6.32
2023-03-12T10:32:03.818Z,6.10
2023-03-12T10:34:46.025Z,7.75
2023-03-12T10:37:18.840Z,6.95
2023-03-12T10:39:46.289Z,7.28
2023-03-12T10:42:19.355Z,6.95
2023-03-12T10:44:49.386Z,7.57
2023-03-12T10:47:30.709Z,6.93
2023-03-12T10:50:14.001Z,7.38
2023-03-12T10:52:41.299Z,6.72
2023-03-12T10:55:21.838Z,6.65
2023-03-12T10:57:49.282Z,6.10
2023-03-12T11:00:29.557Z,4.93
2023-03-12T11:03:04.324Z,6.65
2023-03-12T11:05:36.012Z,6.40
2023-03-12T11:08:04.245Z,6.35
2023-03-12T11:10:44.007Z,6.03
2023-03-12T11:13:36.759Z,5.25
2023-03-12T11:16:25.130Z,5.78
2023-03-12T11:19:00.048Z,4.97
2023-03-12T11:21:27.309Z,5.18
2023-03-12T11:23:59.096Z,4.60
2023-03-12T11:26:39.887Z,5.28
2023-03-12T11:29:22.705Z,5.13
2023-03-12T11:32:16.752Z,4.03
2023-03-12T11:34:47.698Z,3.50
2023-03-12T11:37:45.203Z,5.43
2023-03-12T11:40:36.670Z,3.47
2023-03-12T11:43:42.149Z,3.50
2023-03-12T11:46:21.858Z,4.50
2023-03-12T11:49:20.171Z,3.50
2023-03-12T11:52:11.811Z,4.13
2023-03-12T11:55:16.600Z,3.17
2023-03-12T11:58:06.707Z,3.30
2023-03-12T12:00:48.009Z,2.67
2023-03-12T12:03:39.635Z,3.15
2023-03-12T12:06:36.937Z,2.93
2023-03-12T12:09:26.366Z,3.17
2023-03-12T12:12:21.506Z,2.75
2023-03-12T12:15:03.781Z,3.17
2023-03-12T12:18:14.185Z,2.45
2023-03-12T12:20:58.444Z,2.30
2023-03-12T12:24:08.948Z,3.22
2023-03-12T12:26:49.778Z,3.50
2023-03-12T12:29:25.260Z,2.33
2023-03-12T12:31:56.868Z,2.67
2023-03-12T12:34:39.719Z,2.67
2023-03-12T12:37:33.474Z,3.17
2023-03-12T12:40:11.485Z,3.20
2023-03-12T12:42:52.054Z,2.88
2023-03-12T12:45:20.849Z,2.58
2023-03-12T12:47:53.122Z,2.97
2023-03-12T12:50:23.238Z,3.70
2023-03-12T12:53:00.808Z,4.18
2023-03-12T12:55:46.108Z,3.58
2023-03-12T12:58:21.006Z,3.95
2023-03-12T13:00:58.063Z,4.07
2023-03-12T13:03:26.422Z,4.90
2023-03-12T13:05:58.846Z,3.08
2023-03-12T13:08:45.689Z,3.38
2023-03-12T13:11:20.674Z,2.80
2023-03-12T13:14:05.347Z,3.37
2023-03-12T13:16:36.232Z,3.95
2023-03-12T13:19:22.869Z,3.78
2023-03-12T13:22:13.039Z,3.50
2023-03-12T13:24:42.158Z,3.58
2023-03-12T13:27:22.170Z,3.70
2023-03-12T13:29:55.263Z,3.25
2023-03-12T13:32:59.472Z,4.85
2023-03-12T13:35:31.596Z,4.10
2023-03-12T13:38:05.547Z,3.35
2023-03-12T13:40:32.200Z,4.10
2023-03-12T13:43:30.992Z,4.97
2023-03-12T13:46:27.739Z,3.15
2023-03-12T13:49:01.111Z,4.43
2023-03-12T13:51:28.391Z,3.53
2023-03-12T13:53:59.471Z,4.27
2023-03-12T13:56:29.954Z,2.80
2023-03-12T13:59:02.728Z,4.35
2023-03-12T14:01:43.176Z,3.53
2023-03-12T14:04:20.162Z,4.18
2023-03-12T14:07:21.405Z,2.80
2023-03-12T14:09:57.011Z,2.58
2023-03-12T14:12:43.198Z,3.53
2023-03-12T14:15:15.370Z,4.22
2023-03-12T14:17:44.326Z,3.20
2023-03-12T14:20:16.713Z,3.53
2023-03-12T14:22:46.030Z,3.65
2023-03-12T14:25:17.555Z,2.72
2023-03-12T14:27:47.840Z,2.83
2023-03-12T14:30:20.942Z,2.85
2023-03-12T14:32:48.227Z,1.90
2023-03-12T14:35:26.033Z,3.08
2023-03-12T14:38:18.020Z,3.08
2023-03-12T14:41:05.756Z,3.30
2023-03-12T14:43:34.980Z,2.35
2023-03-12T14:46:05.047Z,2.40
2023-03-12T14:48:36.997Z,1.70
2023-03-12T14:51:06.217Z,2.72
2023-03-12T14:53:35.530Z,2.45
2023-03-12T14:56:06.850Z,2.05
2023-03-12T14:58:35.165Z,2.50
2023-03-12T15:01:05.747Z,3.00
2023-03-12T15:03:41.252Z,2.80
2023-03-12T15:06:30.629Z,2.30
2023-03-12T15:08:59.619Z,3.10
2023-03-12T15:11:29.063Z,1.93
2023-03-12T15:14:15.284Z,3.47
2023-03-12T15:16:44.290Z,2.13
2023-03-12T15:19:16.315Z,3.25
2023-03-12T15:21:43.031Z,3.00
2023-03-12T15:24:13.472Z,2.43
2023-03-12T15:26:41.528Z,3.35
2023-03-12T15:29:27.347Z,3.65
2023-03-12T15:31:59.484Z,2.58
2023-03-12T15:34:33.159Z,3.08
2023-03-12T15:37:02.268Z,2.30
2023-03-12T15:39:32.510Z,2.35
2023-03-12T15:42:09.470Z,2.90
2023-03-12T15:44:57.133Z,2.17
2023-03-12T15:47:26.938Z,3.13
2023-03-12T15:50:01.322Z,2.87
2023-03-12T15:52:32.806Z,2.30
2023-03-12T15:55:28.086Z,3.03
2023-03-12T15:57:57.713Z,2.55
2023-03-12T16:00:44.197Z,3.25
2023-03-12T16:03:20.190Z,2.40
2023-03-12T16:05:49.070Z,2.30
2023-03-12T16:08:26.901Z,2.53
2023-03-12T16:10:53.804Z,3.38
2023-03-12T16:13:22.865Z,2.30
2023-03-12T16:15:52.055Z,3.10
2023-03-12T16:18:20.818Z,2.00
2023-03-12T16:20:48.937Z,2.20
2023-03-12T16:23:15.990Z,2.35
2023-03-12T16:25:45.264Z,3.75
2023-03-12T16:28:15.330Z,2.60
2023-03-12T16:30:41.921Z,3.10
2023-03-12T16:33:12.432Z,3.58
2023-03-12T16:35:39.131Z,3.22
2023-03-12T16:38:06.968Z,3.60
2023-03-12T16:40:40.042Z,2.67
2023-03-12T16:43:14.589Z,3.35
2023-03-12T16:45:44.789Z,3.75
2023-03-12T16:48:16.155Z,2.30
2023-03-12T16:50:49.340Z,3.65
2023-03-12T16:53:16.779Z,2.60
2023-03-12T16:55:56.463Z,3.22
2023-03-12T16:58:24.642Z,3.17
2023-03-12T17:00:53.112Z,3.22
2023-03-12T17:03:26.660Z,2.47
2023-03-12T17:05:53.557Z,3.57
2023-03-12T17:08:20.083Z,3.85
2023-03-12T17:10:47.655Z,3.67
2023-03-12T17:13:19.348Z,3.70
2023-03-12T17:15:46.719Z,2.70
2023-03-12T17:18:13.690Z,3.30
2023-03-12T17:20:40.682Z,2.38
2023-03-12T17:23:07.340Z,4.03
2023-03-12T17:25:35.959Z,3.58
2023-03-12T17:28:03.029Z,2.95
2023-03-12T17:30:30.749Z,3.80
2023-03-12T17:33:04.776Z,2.15
2023-03-12T17:35:31.876Z,2.75
2023-03-12T17:37:58.602Z,2.05
2023-03-12T17:40:25.295Z,2.80
2023-03-12T17:42:52.134Z,2.60
2023-03-12T17:45:19.142Z,2.20
2023-03-12T17:47:45.869Z,4.68
2023-03-12T17:50:13.355Z,2.80
2023-03-12T17:52:40.100Z,2.28
2023-03-12T17:55:08.066Z,2.33
2023-03-12T17:57:35.550Z,1.77
2023-03-12T18:00:02.206Z,3.13
2023-03-12T18:02:28.946Z,2.67
2023-03-12T18:04:55.569Z,2.53
2023-03-12T18:07:22.240Z,3.13
2023-03-12T18:09:49.066Z,2.10
2023-03-12T18:12:15.710Z,1.92
2023-03-12T18:14:42.493Z,2.45
2023-03-12T18:17:09.163Z,2.20
2023-03-12T18:19:35.927Z,2.47
2023-03-12T18:22:02.477Z,1.83
2023-03-12T18:24:29.160Z,1.25
2023-03-12T18:26:55.668Z,1.30
2023-03-12T18:29:22.200Z,1.58
2023-03-12T18:31:48.768Z,1.10
2023-03-12T18:34:16.078Z,1.30
2023-03-12T18:36:42.724Z,1.40
2023-03-12T18:39:09.854Z,1.10
2023-03-12T18:41:36.662Z,0.80
2023-03-12T18:44:03.784Z,1.17
2023-03-12T18:46:30.483Z,0.77
2023-03-12T18:48:57.108Z,1.38
2023-03-12T18:51:23.878Z,1.00
2023-03-12T18:53:50.695Z,1.45
2023-03-12T18:56:17.376Z,1.83
2023-03-12T18:58:43.969Z,1.35
2023-03-12T19:01:12.130Z,0.88
2023-03-12T19:03:38.660Z,0.88
2023-03-12T19:06:08.176Z,1.50
2023-03-12T19:08:37.261Z,1.83
2023-03-12T19:11:08.894Z,1.15
2023-03-12T19:13:35.736Z,1.67
2023-03-12T19:16:05.367Z,0.80
2023-03-12T19:18:32.123Z,0.85
2023-03-12T19:20:58.750Z,1.10
2023-03-12T19:23:25.521Z,0.70
2023-03-12T19:25:52.199Z,1.13
2023-03-12T19:28:18.809Z,0.77
2023-03-12T19:30:45.396Z,1.10
2023-03-12T19:33:12.442Z,1.10
2023-03-12T19:35:42.658Z,0.73
2023-03-12T19:38:09.651Z,0.98
2023-03-12T19:40:37.199Z,1.15
2023-03-12T19:43:03.754Z,1.70
2023-03-12T19:45:30.425Z,1.10
2023-03-12T19:47:57.425Z,2.00
2023-03-12T19:50:24.203Z,1.17
2023-03-12T19:52:54.487Z,1.67
2023-03-12T19:55:21.123Z,0.80
2023-03-12T19:57:47.787Z,0.90
2023-03-12T20:00:16.074Z,1.40
2023-03-12T20:02:42.769Z,1.88
2023-03-12T20:05:10.346Z,2.20
2023-03-12T20:07:37.068Z,1.63
2023-03-12T20:10:05.620Z,1.23
2023-03-12T20:12:33.146Z,2.25
2023-03-12T20:14:59.662Z,2.40
2023-03-12T20:17:26.150Z,2.20
2023-03-12T20:19:52.972Z,2.67
2023-03-12T20:22:19.961Z,1.77
2023-03-12T20:24:46.492Z,2.55
2023-03-12T20:27:13.088Z,2.47
2023-03-12T20:29:39.817Z,2.42
2023-03-12T20:32:06.283Z,1.52
2023-03-12T20:34:32.886Z,2.57
2023-03-12T20:36:59.686Z,2.50
2023-03-12T20:39:26.547Z,2.42
2023-03-12T20:41:53.269Z,2.72
2023-03-12T20:44:19.815Z,2.33
2023-03-12T20:46:47.575Z,2.10
2023-03-12T20:49:14.965Z,3.08
2023-03-12T20:51:42.828Z,2.05
2023-03-12T20:54:09.795Z,2.65
2023-03-12T20:56:36.503Z,1.85
2023-03-12T20:59:03.141Z,1.83
2023-03-12T21:01:29.831Z,2.60
2023-03-12T21:03:59.217Z,2.50
2023-03-12T21:06:26.372Z,2.88
2023-03-12T21:08:55.646Z,2.70
2023-03-12T21:11:22.459Z,2.43
2023-03-12T21:13:49.058Z,2.08
2023-03-12T21:16:15.876Z,2.45
2023-03-12T21:18:42.480Z,2.15
2023-03-12T21:21:09.341Z,2.42
2023-03-12T21:23:37.132Z,2.33
2023-03-12T21:26:08.879Z,1.52
2023-03-12T21:28:36.077Z,2.30
2023-03-12T21:31:09.566Z,2.03
2023-03-12T21:33:36.901Z,2.17
2023-03-12T21:36:08.702Z,1.90
2023-03-12T21:38:36.396Z,3.00
2023-03-12T21:41:10.605Z,2.25
2023-03-12T21:43:37.750Z,1.98
2023-03-12T21:46:08.330Z,2.53
2023-03-12T21:48:35.865Z,1.97
2023-03-12T21:51:06.393Z,2.42
2023-03-12T21:53:33.348Z,2.35
2023-03-12T21:56:01.438Z,2.28
2023-03-12T21:58:29.045Z,1.95
2023-03-12T22:01:13.138Z,2.33
2023-03-12T22:03:41.686Z,2.47
2023-03-12T22:06:10.142Z,2.92
2023-03-12T22:08:37.251Z,2.42
2023-03-12T22:11:05.770Z,3.25
2023-03-12T22:13:32.405Z,2.00
2023-03-12T22:16:01.555Z,3.00
2023-03-12T22:18:28.817Z,2.63
2023-03-12T22:20:57.827Z,3.20
2023-03-12T22:23:25.017Z,3.20
2023-03-12T22:25:51.809Z,2.90
2023-03-12T22:28:18.934Z,2.40
2023-03-12T22:30:46.662Z,1.63
2023-03-12T22:33:14.074Z,2.25
2023-03-12T22:35:47.139Z,3.58
2023-03-12T22:38:14.496Z,2.60
2023-03-12T22:40:41.692Z,2.53
2023-03-12T22:43:08.879Z,3.33
2023-03-12T22:45:35.744Z,2.50
2023-03-12T22:48:02.296Z,2.45
2023-03-12T22:50:28.939Z,2.10
2023-03-12T22:52:55.542Z,3.20
2023-03-12T22:55:22.219Z,3.63
2023-03-12T22:57:48.776Z,2.85
2023-03-12T23:00:18.436Z,3.70
2023-03-12T23:02:45.172Z,7.90
2023-03-12T23:05:11.929Z,3.83
2023-03-12T23:07:38.722Z,3.08
2023-03-12T23:10:06.248Z,3.92
2023-03-12T23:12:33.136Z,3.40
2023-03-12T23:14:59.722Z,3.03
2023-03-12T23:17:26.272Z,2.40
2023-03-12T23:19:52.902Z,2.45
2023-03-12T23:22:19.690Z,2.70
2023-03-12T23:24:46.232Z,3.08
2023-03-12T23:27:12.729Z,3.37
2023-03-12T23:29:39.201Z,2.53
2023-03-12T23:32:06.521Z,4.47
2023-03-12T23:34:34.252Z,2.78
2023-03-12T23:37:01.110Z,3.28
2023-03-12T23:39:29.947Z,2.60
2023-03-12T23:41:57.439Z,3.25
2023-03-12T23:44:24.429Z,3.35
2023-03-12T23:46:51.074Z,2.88
2023-03-12T23:49:17.665Z,2.30
2023-03-12T23:51:44.436Z,2.97
2023-03-12T23:54:10.982Z,2.67
2023-03-12T23:56:39.954Z,2.83
2023-03-12T23:59:08.809Z,3.53
